sensor_id;sensor_type;location;lat;lon;timestamp;P1;durP1;ratioP1;P2;durP2;ratioP2
10315;SDS011;5203;48.976;8.306;2022-12-17T00:01:22;11.63;;;9.07;;
10315;SDS011;5203;48.976;8.306;2022-12-17T00:04:06;13.73;;;10.53;;
10315;SDS011;5203;48.976;8.306;2022-12-17T00:06:50;11.43;;;10.23;;
10315;SDS011;5203;48.976;8.306;2022-12-17T00:09:34;11.67;;;10.20;;
10315;SDS011;5203;48.976;8.306;2022-12-17T00:12:18;14.43;;;10.50;;
10315;SDS011;5203;48.976;8.306;2022-12-17T00:15:03;13.63;;;10.27;;
10315;SDS011;5203;48.976;8.306;2022-12-17T00:17:47;16.23;;;10.57;;
10315;SDS011;5203;48.976;8.306;2022-12-17T00:20:31;15.40;;;11.00;;
10315;SDS011;5203;48.976;8.306;2022-12-17T00:23:15;14.53;;;10.47;;
10315;SDS011;5203;48.976;8.306;2022-12-17T00:26:00;13.57;;;10.33;;
10315;SDS011;5203;48.976;8.306;2022-12-17T00:28:44;14.30;;;11.30;;
10315;SDS011;5203;48.976;8.306;2022-12-17T00:31:28;14.37;;;10.90;;
10315;SDS011;5203;48.976;8.306;2022-12-17T00:34:13;12.07;;;10.43;;
10315;SDS011;5203;48.976;8.306;2022-12-17T00:36:57;13.30;;;10.33;;
10315;SDS011;5203;48.976;8.306;2022-12-17T00:39:42;15.13;;;11.33;;
10315;SDS011;5203;48.976;8.306;2022-12-17T00:42:26;12.33;;;10.50;;
10315;SDS011;5203;48.976;8.306;2022-12-17T00:45:11;12.83;;;10.63;;
10315;SDS011;5203;48.976;8.306;2022-12-17T00:47:55;13.80;;;11.53;;
10315;SDS011;5203;48.976;8.306;2022-12-17T00:50:39;15.77;;;11.93;;
10315;SDS011;5203;48.976;8.306;2022-12-17T00:53:24;13.93;;;10.87;;
10315;SDS011;5203;48.976;8.306;2022-12-17T00:56:08;15.60;;;11.30;;
10315;SDS011;5203;48.976;8.306;2022-12-17T00:58:52;14.37;;;10.80;;
10315;SDS011;5203;48.976;8.306;2022-12-17T01:01:36;15.93;;;11.63;;
10315;SDS011;5203;48.976;8.306;2022-12-17T01:04:21;13.07;;;10.87;;
10315;SDS011;5203;48.976;8.306;2022-12-17T01:07:05;12.97;;;10.57;;
10315;SDS011;5203;48.976;8.306;2022-12-17T01:09:49;13.37;;;10.60;;
10315;SDS011;5203;48.976;8.306;2022-12-17T01:12:34;11.40;;;10.00;;
10315;SDS011;5203;48.976;8.306;2022-12-17T01:15:18;14.77;;;11.10;;
10315;SDS011;5203;48.976;8.306;2022-12-17T01:18:02;13.10;;;10.17;;
10315;SDS011;5203;48.976;8.306;2022-12-17T01:20:57;15.20;;;12.13;;
10315;SDS011;5203;48.976;8.306;2022-12-17T01:23:41;13.97;;;11.23;;
10315;SDS011;5203;48.976;8.306;2022-12-17T01:26:25;13.27;;;11.00;;
10315;SDS011;5203;48.976;8.306;2022-12-17T01:29:09;13.10;;;9.93;;
10315;SDS011;5203;48.976;8.306;2022-12-17T01:31:53;12.10;;;10.50;;
10315;SDS011;5203;48.976;8.306;2022-12-17T01:34:37;14.60;;;11.40;;
10315;SDS011;5203;48.976;8.306;2022-12-17T01:37:21;14.37;;;11.43;;
10315;SDS011;5203;48.976;8.306;2022-12-17T01:40:06;16.20;;;11.17;;
10315;SDS011;5203;48.976;8.306;2022-12-17T01:42:51;12.73;;;11.43;;
10315;SDS011;5203;48.976;8.306;2022-12-17T01:45:37;15.47;;;11.77;;
10315;SDS011;5203;48.976;8.306;2022-12-17T01:48:27;15.50;;;11.40;;
10315;SDS011;5203;48.976;8.306;2022-12-17T01:51:14;17.40;;;11.87;;
10315;SDS011;5203;48.976;8.306;2022-12-17T01:54:00;17.20;;;11.40;;
10315;SDS011;5203;48.976;8.306;2022-12-17T01:56:45;13.90;;;10.77;;
10315;SDS011;5203;48.976;8.306;2022-12-17T01:59:35;14.77;;;10.67;;
10315;SDS011;5203;48.976;8.306;2022-12-17T02:02:26;14.87;;;11.90;;
10315;SDS011;5203;48.976;8.306;2022-12-17T02:05:10;19.03;;;12.30;;
10315;SDS011;5203;48.976;8.306;2022-12-17T02:17:05;15.90;;;12.13;;
10315;SDS011;5203;48.976;8.306;2022-12-17T02:29:03;20.47;;;15.43;;
10315;SDS011;5203;48.976;8.306;2022-12-17T02:31:50;27.03;;;17.40;;
10315;SDS011;5203;48.976;8.306;2022-12-17T02:34:45;20.27;;;15.53;;
10315;SDS011;5203;48.976;8.306;2022-12-17T02:37:30;24.27;;;15.67;;
10315;SDS011;5203;48.976;8.306;2022-12-17T02:40:15;23.17;;;14.50;;
10315;SDS011;5203;48.976;8.306;2022-12-17T02:43:01;18.20;;;13.73;;
10315;SDS011;5203;48.976;8.306;2022-12-17T02:45:46;21.67;;;14.10;;
10315;SDS011;5203;48.976;8.306;2022-12-17T02:48:31;20.20;;;14.97;;
10315;SDS011;5203;48.976;8.306;2022-12-17T02:51:19;26.40;;;14.50;;
10315;SDS011;5203;48.976;8.306;2022-12-17T02:54:04;21.57;;;14.63;;
10315;SDS011;5203;48.976;8.306;2022-12-17T02:56:48;24.17;;;17.83;;
10315;SDS011;5203;48.976;8.306;2022-12-17T02:59:32;22.03;;;14.77;;
10315;SDS011;5203;48.976;8.306;2022-12-17T03:02:16;24.63;;;16.93;;
10315;SDS011;5203;48.976;8.306;2022-12-17T03:05:01;22.90;;;16.87;;
10315;SDS011;5203;48.976;8.306;2022-12-17T03:07:45;26.90;;;18.40;;
10315;SDS011;5203;48.976;8.306;2022-12-17T03:10:29;29.80;;;18.83;;
10315;SDS011;5203;48.976;8.306;2022-12-17T03:13:33;29.10;;;17.93;;
10315;SDS011;5203;48.976;8.306;2022-12-17T03:16:18;28.77;;;19.00;;
10315;SDS011;5203;48.976;8.306;2022-12-17T03:19:02;22.97;;;16.07;;
10315;SDS011;5203;48.976;8.306;2022-12-17T03:21:47;25.27;;;15.97;;
10315;SDS011;5203;48.976;8.306;2022-12-17T03:24:31;26.87;;;15.30;;
10315;SDS011;5203;48.976;8.306;2022-12-17T03:27:15;23.77;;;16.87;;
10315;SDS011;5203;48.976;8.306;2022-12-17T03:29:59;26.87;;;16.47;;
10315;SDS011;5203;48.976;8.306;2022-12-17T03:32:43;26.60;;;16.27;;
10315;SDS011;5203;48.976;8.306;2022-12-17T03:35:28;22.50;;;16.60;;
10315;SDS011;5203;48.976;8.306;2022-12-17T03:38:12;23.77;;;16.27;;
10315;SDS011;5203;48.976;8.306;2022-12-17T03:40:56;27.20;;;16.93;;
10315;SDS011;5203;48.976;8.306;2022-12-17T03:43:41;30.03;;;18.20;;
10315;SDS011;5203;48.976;8.306;2022-12-17T03:46:25;25.43;;;15.57;;
10315;SDS011;5203;48.976;8.306;2022-12-17T03:49:09;27.47;;;16.80;;
10315;SDS011;5203;48.976;8.306;2022-12-17T03:51:53;26.40;;;16.40;;
10315;SDS011;5203;48.976;8.306;2022-12-17T03:54:37;24.40;;;16.37;;
10315;SDS011;5203;48.976;8.306;2022-12-17T03:57:21;23.53;;;15.63;;
10315;SDS011;5203;48.976;8.306;2022-12-17T04:00:06;20.57;;;15.17;;
10315;SDS011;5203;48.976;8.306;2022-12-17T04:02:51;21.93;;;15.63;;
10315;SDS011;5203;48.976;8.306;2022-12-17T04:05:36;25.43;;;15.40;;
10315;SDS011;5203;48.976;8.306;2022-12-17T04:08:21;24.50;;;15.67;;
10315;SDS011;5203;48.976;8.306;2022-12-17T04:11:05;21.60;;;13.90;;
10315;SDS011;5203;48.976;8.306;2022-12-17T04:13:49;21.57;;;15.40;;
10315;SDS011;5203;48.976;8.306;2022-12-17T04:16:34;17.97;;;13.63;;
10315;SDS011;5203;48.976;8.306;2022-12-17T04:19:18;18.83;;;13.57;;
10315;SDS011;5203;48.976;8.306;2022-12-17T04:22:02;19.97;;;14.50;;
10315;SDS011;5203;48.976;8.306;2022-12-17T04:24:46;20.40;;;14.13;;
10315;SDS011;5203;48.976;8.306;2022-12-17T04:27:30;18.17;;;14.37;;
10315;SDS011;5203;48.976;8.306;2022-12-17T04:30:14;18.20;;;13.77;;
10315;SDS011;5203;48.976;8.306;2022-12-17T04:32:58;18.53;;;13.10;;
10315;SDS011;5203;48.976;8.306;2022-12-17T04:35:43;17.03;;;13.43;;
10315;SDS011;5203;48.976;8.306;2022-12-17T04:38:27;15.77;;;13.90;;
10315;SDS011;5203;48.976;8.306;2022-12-17T04:41:11;17.70;;;13.13;;
10315;SDS011;5203;48.976;8.306;2022-12-17T04:43:55;18.73;;;13.57;;
10315;SDS011;5203;48.976;8.306;2022-12-17T04:46:39;17.20;;;12.83;;
10315;SDS011;5203;48.976;8.306;2022-12-17T04:49:23;17.00;;;12.40;;
10315;SDS011;5203;48.976;8.306;2022-12-17T04:52:08;14.10;;;11.60;;
10315;SDS011;5203;48.976;8.306;2022-12-17T04:54:52;17.27;;;12.83;;
10315;SDS011;5203;48.976;8.306;2022-12-17T04:57:36;17.27;;;13.13;;
10315;SDS011;5203;48.976;8.306;2022-12-17T05:00:20;19.17;;;13.73;;
10315;SDS011;5203;48.976;8.306;2022-12-17T05:03:05;16.07;;;12.60;;
10315;SDS011;5203;48.976;8.306;2022-12-17T05:05:53;17.00;;;12.17;;
10315;SDS011;5203;48.976;8.306;2022-12-17T05:08:37;20.13;;;12.53;;
10315;SDS011;5203;48.976;8.306;2022-12-17T05:11:22;17.73;;;12.47;;
10315;SDS011;5203;48.976;8.306;2022-12-17T05:14:06;16.97;;;11.90;;
10315;SDS011;5203;48.976;8.306;2022-12-17T05:16:50;15.17;;;12.40;;
10315;SDS011;5203;48.976;8.306;2022-12-17T05:19:34;17.53;;;12.93;;
10315;SDS011;5203;48.976;8.306;2022-12-17T05:22:19;16.10;;;12.20;;
10315;SDS011;5203;48.976;8.306;2022-12-17T05:25:03;16.40;;;13.20;;
10315;SDS011;5203;48.976;8.306;2022-12-17T05:27:48;15.60;;;13.37;;
10315;SDS011;5203;48.976;8.306;2022-12-17T05:30:32;18.50;;;13.03;;
10315;SDS011;5203;48.976;8.306;2022-12-17T05:33:16;19.27;;;12.87;;
10315;SDS011;5203;48.976;8.306;2022-12-17T05:36:02;18.77;;;13.17;;
10315;SDS011;5203;48.976;8.306;2022-12-17T05:38:47;17.20;;;12.23;;
10315;SDS011;5203;48.976;8.306;2022-12-17T05:41:31;17.47;;;13.70;;
10315;SDS011;5203;48.976;8.306;2022-12-17T05:44:16;19.73;;;14.73;;
10315;SDS011;5203;48.976;8.306;2022-12-17T05:47:00;19.67;;;14.67;;
10315;SDS011;5203;48.976;8.306;2022-12-17T05:49:44;21.13;;;16.00;;
10315;SDS011;5203;48.976;8.306;2022-12-17T05:52:29;21.13;;;16.70;;
10315;SDS011;5203;48.976;8.306;2022-12-17T05:55:13;19.83;;;15.27;;
10315;SDS011;5203;48.976;8.306;2022-12-17T05:58:03;22.23;;;15.37;;
10315;SDS011;5203;48.976;8.306;2022-12-17T06:00:49;24.63;;;16.90;;
10315;SDS011;5203;48.976;8.306;2022-12-17T06:03:37;24.23;;;17.33;;
10315;SDS011;5203;48.976;8.306;2022-12-17T06:06:21;29.00;;;18.67;;
10315;SDS011;5203;48.976;8.306;2022-12-17T06:09:05;26.70;;;18.73;;
10315;SDS011;5203;48.976;8.306;2022-12-17T06:11:49;25.73;;;18.60;;
10315;SDS011;5203;48.976;8.306;2022-12-17T06:14:33;26.67;;;19.27;;
10315;SDS011;5203;48.976;8.306;2022-12-17T06:17:18;29.37;;;19.20;;
10315;SDS011;5203;48.976;8.306;2022-12-17T06:20:02;30.67;;;19.13;;
10315;SDS011;5203;48.976;8.306;2022-12-17T06:22:46;27.23;;;19.17;;
10315;SDS011;5203;48.976;8.306;2022-12-17T06:25:41;28.77;;;19.70;;
10315;SDS011;5203;48.976;8.306;2022-12-17T06:28:25;32.33;;;22.20;;
10315;SDS011;5203;48.976;8.306;2022-12-17T06:31:09;30.30;;;20.80;;
10315;SDS011;5203;48.976;8.306;2022-12-17T06:33:53;32.37;;;23.90;;
10315;SDS011;5203;48.976;8.306;2022-12-17T06:36:37;32.70;;;21.80;;
10315;SDS011;5203;48.976;8.306;2022-12-17T06:39:21;37.07;;;24.77;;
10315;SDS011;5203;48.976;8.306;2022-12-17T06:42:05;31.63;;;21.50;;
10315;SDS011;5203;48.976;8.306;2022-12-17T06:44:50;35.17;;;21.33;;
10315;SDS011;5203;48.976;8.306;2022-12-17T06:47:34;29.50;;;21.40;;
10315;SDS011;5203;48.976;8.306;2022-12-17T06:50:18;30.93;;;19.53;;
10315;SDS011;5203;48.976;8.306;2022-12-17T06:53:02;31.20;;;18.80;;
10315;SDS011;5203;48.976;8.306;2022-12-17T06:55:49;29.40;;;20.63;;
10315;SDS011;5203;48.976;8.306;2022-12-17T06:58:33;27.87;;;20.97;;
10315;SDS011;5203;48.976;8.306;2022-12-17T07:01:17;28.87;;;19.97;;
10315;SDS011;5203;48.976;8.306;2022-12-17T07:04:02;29.60;;;19.60;;
10315;SDS011;5203;48.976;8.306;2022-12-17T07:06:46;33.30;;;19.93;;
10315;SDS011;5203;48.976;8.306;2022-12-17T07:09:41;27.87;;;21.17;;
10315;SDS011;5203;48.976;8.306;2022-12-17T07:12:25;29.13;;;19.73;;
10315;SDS011;5203;48.976;8.306;2022-12-17T07:15:09;27.70;;;18.87;;
10315;SDS011;5203;48.976;8.306;2022-12-17T07:17:58;27.73;;;18.90;;
10315;SDS011;5203;48.976;8.306;2022-12-17T07:20:44;26.80;;;20.27;;
10315;SDS011;5203;48.976;8.306;2022-12-17T07:23:29;24.77;;;18.60;;
10315;SDS011;5203;48.976;8.306;2022-12-17T07:26:14;25.93;;;17.73;;
10315;SDS011;5203;48.976;8.306;2022-12-17T07:28:59;27.97;;;18.93;;
10315;SDS011;5203;48.976;8.306;2022-12-17T07:31:43;30.03;;;20.13;;
10315;SDS011;5203;48.976;8.306;2022-12-17T07:34:28;28.07;;;18.90;;
10315;SDS011;5203;48.976;8.306;2022-12-17T07:37:23;31.47;;;18.40;;
10315;SDS011;5203;48.976;8.306;2022-12-17T07:40:07;26.00;;;19.10;;
10315;SDS011;5203;48.976;8.306;2022-12-17T07:42:52;28.77;;;20.73;;
10315;SDS011;5203;48.976;8.306;2022-12-17T07:45:36;30.67;;;18.87;;
10315;SDS011;5203;48.976;8.306;2022-12-17T07:48:20;28.63;;;18.93;;
10315;SDS011;5203;48.976;8.306;2022-12-17T07:51:05;26.93;;;19.40;;
10315;SDS011;5203;48.976;8.306;2022-12-17T07:53:49;32.60;;;21.17;;
10315;SDS011;5203;48.976;8.306;2022-12-17T07:56:33;28.87;;;19.13;;
10315;SDS011;5203;48.976;8.306;2022-12-17T07:59:17;26.47;;;19.30;;
10315;SDS011;5203;48.976;8.306;2022-12-17T08:02:01;27.63;;;19.70;;
10315;SDS011;5203;48.976;8.306;2022-12-17T08:04:45;28.77;;;18.83;;
10315;SDS011;5203;48.976;8.306;2022-12-17T08:07:30;26.60;;;18.23;;
10315;SDS011;5203;48.976;8.306;2022-12-17T08:10:14;25.23;;;17.67;;
10315;SDS011;5203;48.976;8.306;2022-12-17T08:12:59;25.50;;;18.93;;
10315;SDS011;5203;48.976;8.306;2022-12-17T08:15:47;25.30;;;18.03;;
10315;SDS011;5203;48.976;8.306;2022-12-17T08:18:32;23.17;;;17.77;;
10315;SDS011;5203;48.976;8.306;2022-12-17T08:21:17;26.33;;;18.10;;
10315;SDS011;5203;48.976;8.306;2022-12-17T08:24:01;28.67;;;19.10;;
10315;SDS011;5203;48.976;8.306;2022-12-17T08:26:46;24.50;;;18.97;;
10315;SDS011;5203;48.976;8.306;2022-12-17T08:29:30;26.43;;;19.63;;
10315;SDS011;5203;48.976;8.306;2022-12-17T08:32:14;29.57;;;18.93;;
10315;SDS011;5203;48.976;8.306;2022-12-17T08:34:58;29.50;;;18.70;;
10315;SDS011;5203;48.976;8.306;2022-12-17T08:37:42;27.23;;;18.63;;
10315;SDS011;5203;48.976;8.306;2022-12-17T08:40:27;28.33;;;17.63;;
10315;SDS011;5203;48.976;8.306;2022-12-17T08:43:12;27.97;;;19.20;;
10315;SDS011;5203;48.976;8.306;2022-12-17T08:45:57;32.33;;;20.10;;
10315;SDS011;5203;48.976;8.306;2022-12-17T08:48:41;28.27;;;18.43;;
10315;SDS011;5203;48.976;8.306;2022-12-17T08:51:25;29.00;;;19.63;;
10315;SDS011;5203;48.976;8.306;2022-12-17T08:54:09;28.57;;;18.57;;
10315;SDS011;5203;48.976;8.306;2022-12-17T08:56:54;29.40;;;20.27;;
10315;SDS011;5203;48.976;8.306;2022-12-17T08:59:38;28.10;;;19.93;;
10315;SDS011;5203;48.976;8.306;2022-12-17T09:02:22;32.97;;;21.80;;
10315;SDS011;5203;48.976;8.306;2022-12-17T09:05:07;27.07;;;20.83;;
10315;SDS011;5203;48.976;8.306;2022-12-17T09:08:03;29.30;;;20.50;;
10315;SDS011;5203;48.976;8.306;2022-12-17T09:10:49;30.20;;;18.93;;
10315;SDS011;5203;48.976;8.306;2022-12-17T09:13:33;31.57;;;20.17;;
10315;SDS011;5203;48.976;8.306;2022-12-17T09:16:18;28.47;;;19.40;;
10315;SDS011;5203;48.976;8.306;2022-12-17T09:19:03;32.37;;;21.03;;
10315;SDS011;5203;48.976;8.306;2022-12-17T09:21:48;30.50;;;21.27;;
10315;SDS011;5203;48.976;8.306;2022-12-17T09:24:32;34.40;;;22.13;;
10315;SDS011;5203;48.976;8.306;2022-12-17T09:27:16;43.73;;;27.50;;
10315;SDS011;5203;48.976;8.306;2022-12-17T09:30:01;38.67;;;25.63;;
10315;SDS011;5203;48.976;8.306;2022-12-17T09:32:45;47.63;;;30.60;;
10315;SDS011;5203;48.976;8.306;2022-12-17T09:35:29;60.40;;;34.90;;
10315;SDS011;5203;48.976;8.306;2022-12-17T09:38:17;50.37;;;29.63;;
10315;SDS011;5203;48.976;8.306;2022-12-17T09:41:04;31.73;;;20.90;;
10315;SDS011;5203;48.976;8.306;2022-12-17T09:44:02;32.50;;;21.73;;
10315;SDS011;5203;48.976;8.306;2022-12-17T09:49:45;41.03;;;26.60;;
10315;SDS011;5203;48.976;8.306;2022-12-17T09:52:33;31.33;;;22.80;;
10315;SDS011;5203;48.976;8.306;2022-12-17T09:55:29;41.23;;;26.37;;
10315;SDS011;5203;48.976;8.306;2022-12-17T09:58:20;39.07;;;27.23;;
10315;SDS011;5203;48.976;8.306;2022-12-17T10:01:17;35.43;;;24.63;;
10315;SDS011;5203;48.976;8.306;2022-12-17T10:04:03;30.73;;;21.77;;
10315;SDS011;5203;48.976;8.306;2022-12-17T10:06:55;29.93;;;22.07;;
10315;SDS011;5203;48.976;8.306;2022-12-17T10:09:40;35.23;;;23.10;;
10315;SDS011;5203;48.976;8.306;2022-12-17T10:12:24;26.90;;;20.20;;
10315;SDS011;5203;48.976;8.306;2022-12-17T10:15:11;40.73;;;31.27;;
10315;SDS011;5203;48.976;8.306;2022-12-17T10:17:56;30.90;;;21.43;;
10315;SDS011;5203;48.976;8.306;2022-12-17T10:20:49;36.43;;;24.90;;
10315;SDS011;5203;48.976;8.306;2022-12-17T10:23:39;49.67;;;33.97;;
10315;SDS011;5203;48.976;8.306;2022-12-17T10:26:28;33.00;;;23.07;;
10315;SDS011;5203;48.976;8.306;2022-12-17T10:29:19;32.93;;;23.13;;
10315;SDS011;5203;48.976;8.306;2022-12-17T10:32:09;34.23;;;22.53;;
10315;SDS011;5203;48.976;8.306;2022-12-17T10:34:57;37.27;;;25.40;;
10315;SDS011;5203;48.976;8.306;2022-12-17T10:37:44;28.30;;;20.50;;
10315;SDS011;5203;48.976;8.306;2022-12-17T10:40:30;32.63;;;20.93;;
10315;SDS011;5203;48.976;8.306;2022-12-17T10:49:13;44.97;;;29.53;;
10315;SDS011;5203;48.976;8.306;2022-12-17T10:52:22;35.97;;;25.67;;
10315;SDS011;5203;48.976;8.306;2022-12-17T10:55:21;35.33;;;24.60;;
10315;SDS011;5203;48.976;8.306;2022-12-17T10:58:18;34.27;;;24.33;;
10315;SDS011;5203;48.976;8.306;2022-12-17T11:01:03;32.33;;;24.17;;
10315;SDS011;5203;48.976;8.306;2022-12-17T11:03:50;32.30;;;21.97;;
10315;SDS011;5203;48.976;8.306;2022-12-17T11:09:33;29.27;;;21.40;;
10315;SDS011;5203;48.976;8.306;2022-12-17T11:12:33;33.27;;;22.77;;
10315;SDS011;5203;48.976;8.306;2022-12-17T11:18:17;28.50;;;21.50;;
10315;SDS011;5203;48.976;8.306;2022-12-17T11:21:13;37.23;;;24.20;;
10315;SDS011;5203;48.976;8.306;2022-12-17T11:24:03;31.90;;;22.97;;
10315;SDS011;5203;48.976;8.306;2022-12-17T11:26:53;29.77;;;22.10;;
10315;SDS011;5203;48.976;8.306;2022-12-17T11:29:40;33.10;;;21.97;;
10315;SDS011;5203;48.976;8.306;2022-12-17T11:32:40;32.33;;;23.77;;
10315;SDS011;5203;48.976;8.306;2022-12-17T11:35:38;30.50;;;22.77;;
10315;SDS011;5203;48.976;8.306;2022-12-17T11:38:37;40.17;;;28.27;;
10315;SDS011;5203;48.976;8.306;2022-12-17T11:44:40;34.53;;;24.40;;
10315;SDS011;5203;48.976;8.306;2022-12-17T11:47:40;35.10;;;24.13;;
10315;SDS011;5203;48.976;8.306;2022-12-17T11:56:29;33.40;;;25.60;;
10315;SDS011;5203;48.976;8.306;2022-12-17T12:11:35;35.83;;;24.10;;
10315;SDS011;5203;48.976;8.306;2022-12-17T12:14:35;37.87;;;23.60;;
10315;SDS011;5203;48.976;8.306;2022-12-17T12:17:40;36.03;;;24.80;;
10315;SDS011;5203;48.976;8.306;2022-12-17T12:30:23;38.23;;;24.20;;
10315;SDS011;5203;48.976;8.306;2022-12-17T12:36:25;39.50;;;28.03;;
10315;SDS011;5203;48.976;8.306;2022-12-17T12:39:11;37.73;;;26.90;;
10315;SDS011;5203;48.976;8.306;2022-12-17T12:45:03;41.50;;;26.20;;
10315;SDS011;5203;48.976;8.306;2022-12-17T12:51:23;32.83;;;22.93;;
10315;SDS011;5203;48.976;8.306;2022-12-17T12:54:48;30.20;;;22.63;;
10315;SDS011;5203;48.976;8.306;2022-12-17T12:57:36;28.80;;;21.97;;
10315;SDS011;5203;48.976;8.306;2022-12-17T13:00:34;29.03;;;21.07;;
10315;SDS011;5203;48.976;8.306;2022-12-17T13:03:26;31.37;;;22.63;;
10315;SDS011;5203;48.976;8.306;2022-12-17T13:06:11;32.83;;;24.70;;
10315;SDS011;5203;48.976;8.306;2022-12-17T13:08:50;34.53;;;23.53;;
10315;SDS011;5203;48.976;8.306;2022-12-17T13:11:29;34.77;;;24.03;;
10315;SDS011;5203;48.976;8.306;2022-12-17T13:14:00;30.23;;;23.63;;
10315;SDS011;5203;48.976;8.306;2022-12-17T13:24:42;32.23;;;23.67;;
10315;SDS011;5203;48.976;8.306;2022-12-17T13:43:48;35.00;;;23.47;;
10315;SDS011;5203;48.976;8.306;2022-12-17T13:46:19;37.40;;;25.03;;
10315;SDS011;5203;48.976;8.306;2022-12-17T13:48:56;33.67;;;21.73;;
10315;SDS011;5203;48.976;8.306;2022-12-17T13:51:27;29.67;;;22.17;;
10315;SDS011;5203;48.976;8.306;2022-12-17T13:54:02;30.27;;;22.93;;
10315;SDS011;5203;48.976;8.306;2022-12-17T13:56:33;34.63;;;24.53;;
10315;SDS011;5203;48.976;8.306;2022-12-17T13:59:02;34.27;;;23.93;;
10315;SDS011;5203;48.976;8.306;2022-12-17T14:01:29;33.10;;;24.70;;
10315;SDS011;5203;48.976;8.306;2022-12-17T14:03:56;33.70;;;23.37;;
10315;SDS011;5203;48.976;8.306;2022-12-17T14:06:25;31.37;;;23.60;;
10315;SDS011;5203;48.976;8.306;2022-12-17T14:08:54;31.37;;;22.47;;
10315;SDS011;5203;48.976;8.306;2022-12-17T14:11:21;29.10;;;23.20;;
10315;SDS011;5203;48.976;8.306;2022-12-17T14:16:48;33.33;;;25.60;;
10315;SDS011;5203;48.976;8.306;2022-12-17T14:19:14;33.97;;;24.67;;
10315;SDS011;5203;48.976;8.306;2022-12-17T14:21:40;33.90;;;26.33;;
10315;SDS011;5203;48.976;8.306;2022-12-17T14:24:06;36.63;;;24.43;;
10315;SDS011;5203;48.976;8.306;2022-12-17T14:26:50;29.60;;;24.97;;
10315;SDS011;5203;48.976;8.306;2022-12-17T14:29:26;32.17;;;24.27;;
10315;SDS011;5203;48.976;8.306;2022-12-17T14:34:21;34.20;;;23.50;;
10315;SDS011;5203;48.976;8.306;2022-12-17T14:36:52;30.10;;;22.67;;
10315;SDS011;5203;48.976;8.306;2022-12-17T14:39:24;36.03;;;26.50;;
10315;SDS011;5203;48.976;8.306;2022-12-17T14:41:51;33.10;;;25.07;;
10315;SDS011;5203;48.976;8.306;2022-12-17T14:44:50;29.73;;;23.73;;
10315;SDS011;5203;48.976;8.306;2022-12-17T14:47:17;30.20;;;23.83;;
10315;SDS011;5203;48.976;8.306;2022-12-17T14:52:25;32.47;;;24.97;;
10315;SDS011;5203;48.976;8.306;2022-12-17T14:58:05;31.80;;;24.07;;
10315;SDS011;5203;48.976;8.306;2022-12-17T15:00:33;29.83;;;24.57;;
10315;SDS011;5203;48.976;8.306;2022-12-17T15:03:02;30.53;;;23.50;;
10315;SDS011;5203;48.976;8.306;2022-12-17T15:05:27;35.17;;;26.83;;
10315;SDS011;5203;48.976;8.306;2022-12-17T15:07:53;32.93;;;25.33;;
10315;SDS011;5203;48.976;8.306;2022-12-17T15:10:19;31.23;;;23.90;;
10315;SDS011;5203;48.976;8.306;2022-12-17T15:12:45;31.50;;;23.77;;
10315;SDS011;5203;48.976;8.306;2022-12-17T15:15:15;42.13;;;37.57;;
10315;SDS011;5203;48.976;8.306;2022-12-17T15:17:41;90.43;;;81.37;;
10315;SDS011;5203;48.976;8.306;2022-12-17T15:20:08;32.67;;;28.17;;
10315;SDS011;5203;48.976;8.306;2022-12-17T15:22:41;33.53;;;25.87;;
10315;SDS011;5203;48.976;8.306;2022-12-17T15:25:13;32.07;;;24.40;;
10315;SDS011;5203;48.976;8.306;2022-12-17T15:27:40;31.20;;;24.60;;
10315;SDS011;5203;48.976;8.306;2022-12-17T15:30:06;34.53;;;26.93;;
10315;SDS011;5203;48.976;8.306;2022-12-17T15:32:36;34.43;;;25.73;;
10315;SDS011;5203;48.976;8.306;2022-12-17T15:35:02;33.60;;;24.57;;
10315;SDS011;5203;48.976;8.306;2022-12-17T15:37:28;34.90;;;27.70;;
10315;SDS011;5203;48.976;8.306;2022-12-17T15:39:53;28.70;;;24.23;;
10315;SDS011;5203;48.976;8.306;2022-12-17T15:42:22;28.43;;;22.77;;
10315;SDS011;5203;48.976;8.306;2022-12-17T15:45:07;29.40;;;23.47;;
10315;SDS011;5203;48.976;8.306;2022-12-17T15:47:33;28.30;;;22.87;;
10315;SDS011;5203;48.976;8.306;2022-12-17T15:49:58;33.43;;;22.10;;
10315;SDS011;5203;48.976;8.306;2022-12-17T15:52:24;28.77;;;22.43;;
10315;SDS011;5203;48.976;8.306;2022-12-17T15:54:50;32.37;;;22.43;;
10315;SDS011;5203;48.976;8.306;2022-12-17T15:57:15;35.57;;;26.67;;
10315;SDS011;5203;48.976;8.306;2022-12-17T15:59:41;33.20;;;24.27;;
10315;SDS011;5203;48.976;8.306;2022-12-17T16:02:08;30.47;;;24.73;;
10315;SDS011;5203;48.976;8.306;2022-12-17T16:04:34;31.67;;;24.00;;
10315;SDS011;5203;48.976;8.306;2022-12-17T16:07:01;30.57;;;24.67;;
10315;SDS011;5203;48.976;8.306;2022-12-17T16:09:27;28.07;;;23.30;;
10315;SDS011;5203;48.976;8.306;2022-12-17T16:11:53;35.13;;;24.60;;
10315;SDS011;5203;48.976;8.306;2022-12-17T16:14:19;31.77;;;23.67;;
10315;SDS011;5203;48.976;8.306;2022-12-17T16:16:45;33.43;;;25.93;;
10315;SDS011;5203;48.976;8.306;2022-12-17T16:19:13;37.67;;;26.57;;
10315;SDS011;5203;48.976;8.306;2022-12-17T16:21:38;40.00;;;28.30;;
10315;SDS011;5203;48.976;8.306;2022-12-17T16:24:04;36.17;;;27.30;;
10315;SDS011;5203;48.976;8.306;2022-12-17T16:26:30;32.73;;;25.03;;
10315;SDS011;5203;48.976;8.306;2022-12-17T16:28:56;34.70;;;24.10;;
10315;SDS011;5203;48.976;8.306;2022-12-17T16:31:22;40.60;;;25.97;;
10315;SDS011;5203;48.976;8.306;2022-12-17T16:33:49;32.97;;;24.27;;
10315;SDS011;5203;48.976;8.306;2022-12-17T16:36:16;38.57;;;26.87;;
10315;SDS011;5203;48.976;8.306;2022-12-17T16:38:51;41.33;;;27.93;;
10315;SDS011;5203;48.976;8.306;2022-12-17T16:41:18;32.37;;;25.07;;
10315;SDS011;5203;48.976;8.306;2022-12-17T16:43:45;36.97;;;26.77;;
10315;SDS011;5203;48.976;8.306;2022-12-17T16:46:25;41.77;;;29.30;;
10315;SDS011;5203;48.976;8.306;2022-12-17T16:48:55;39.57;;;28.13;;
10315;SDS011;5203;48.976;8.306;2022-12-17T16:51:23;35.03;;;25.17;;
10315;SDS011;5203;48.976;8.306;2022-12-17T16:53:51;41.73;;;29.17;;
10315;SDS011;5203;48.976;8.306;2022-12-17T16:56:24;41.83;;;29.77;;
10315;SDS011;5203;48.976;8.306;2022-12-17T16:58:51;36.53;;;27.37;;
10315;SDS011;5203;48.976;8.306;2022-12-17T17:01:19;42.70;;;31.03;;
10315;SDS011;5203;48.976;8.306;2022-12-17T17:03:46;42.83;;;31.27;;
10315;SDS011;5203;48.976;8.306;2022-12-17T17:06:13;46.10;;;32.13;;
10315;SDS011;5203;48.976;8.306;2022-12-17T17:08:39;41.03;;;29.10;;
10315;SDS011;5203;48.976;8.306;2022-12-17T17:11:12;38.27;;;27.80;;
10315;SDS011;5203;48.976;8.306;2022-12-17T17:13:40;40.10;;;26.67;;
10315;SDS011;5203;48.976;8.306;2022-12-17T17:16:06;39.27;;;27.27;;
10315;SDS011;5203;48.976;8.306;2022-12-17T17:18:34;34.77;;;25.03;;
10315;SDS011;5203;48.976;8.306;2022-12-17T17:23:44;42.27;;;27.83;;
10315;SDS011;5203;48.976;8.306;2022-12-17T17:26:11;45.00;;;31.73;;
10315;SDS011;5203;48.976;8.306;2022-12-17T17:28:37;52.53;;;34.00;;
10315;SDS011;5203;48.976;8.306;2022-12-17T17:31:04;56.67;;;38.77;;
10315;SDS011;5203;48.976;8.306;2022-12-17T17:33:33;44.83;;;31.67;;
10315;SDS011;5203;48.976;8.306;2022-12-17T17:36:04;44.53;;;30.17;;
10315;SDS011;5203;48.976;8.306;2022-12-17T17:38:32;52.57;;;35.83;;
10315;SDS011;5203;48.976;8.306;2022-12-17T17:40:58;42.37;;;31.10;;
10315;SDS011;5203;48.976;8.306;2022-12-17T17:43:25;45.53;;;32.20;;
10315;SDS011;5203;48.976;8.306;2022-12-17T17:45:50;47.73;;;32.93;;
10315;SDS011;5203;48.976;8.306;2022-12-17T17:48:17;52.70;;;37.00;;
10315;SDS011;5203;48.976;8.306;2022-12-17T17:50:43;44.63;;;31.87;;
10315;SDS011;5203;48.976;8.306;2022-12-17T17:53:20;67.17;;;47.33;;